sensor_id;sensor_type;location;lat;lon;timestamp;temperature;humidity
9971;DHT22;5026;51.494;11.974;2023-02-19T00:01:46;9.80;99.90
9971;DHT22;5026;51.494;11.974;2023-02-19T00:04:14;9.90;99.90
9971;DHT22;5026;51.494;11.974;2023-02-19T00:06:43;9.90;99.90
9971;DHT22;5026;51.494;11.974;2023-02-19T00:09:11;9.90;99.90
9971;DHT22;5026;51.494;11.974;2023-02-19T00:11:39;9.90;99.90
9971;DHT22;5026;51.494;11.974;2023-02-19T00:14:07;9.80;99.90
9971;DHT22;5026;51.494;11.974;2023-02-19T00:16:36;9.80;99.90
9971;DHT22;5026;51.494;11.974;2023-02-19T00:19:05;9.80;99.90
9971;DHT22;5026;51.494;11.974;2023-02-19T00:21:32;9.80;99.90
9971;DHT22;5026;51.494;11.974;2023-02-19T00:24:01;9.80;99.90
9971;DHT22;5026;51.494;11.974;2023-02-19T00:26:28;9.80;99.90
9971;DHT22;5026;51.494;11.974;2023-02-19T00:28:56;9.80;99.90
9971;DHT22;5026;51.494;11.974;2023-02-19T00:31:26;9.80;99.90
9971;DHT22;5026;51.494;11.974;2023-02-19T00:33:56;9.80;99.90
9971;DHT22;5026;51.494;11.974;2023-02-19T00:36:25;9.80;99.90
9971;DHT22;5026;51.494;11.974;2023-02-19T00:38:52;9.70;99.90
9971;DHT22;5026;51.494;11.974;2023-02-19T00:41:21;9.60;99.90
9971;DHT22;5026;51.494;11.974;2023-02-19T00:43:51;9.60;99.90
9971;DHT22;5026;51.494;11.974;2023-02-19T00:46:20;9.60;99.90
9971;DHT22;5026;51.494;11.974;2023-02-19T00:48:48;9.60;99.90
9971;DHT22;5026;51.494;11.974;2023-02-19T00:51:17;9.60;99.90
9971;DHT22;5026;51.494;11.974;2023-02-19T00:53:43;9.60;99.90
9971;DHT22;5026;51.494;11.974;2023-02-19T00:56:11;9.60;99.90
9971;DHT22;5026;51.494;11.974;2023-02-19T00:58:38;9.60;99.90
9971;DHT22;5026;51.494;11.974;2023-02-19T01:01:06;9.60;99.90
9971;DHT22;5026;51.494;11.974;2023-02-19T01:03:33;10.50;99.90
9971;DHT22;5026;51.494;11.974;2023-02-19T01:06:03;9.60;99.90
9971;DHT22;5026;51.494;11.974;2023-02-19T01:08:30;9.60;99.90
9971;DHT22;5026;51.494;11.974;2023-02-19T01:10:58;9.60;99.90
9971;DHT22;5026;51.494;11.974;2023-02-19T01:13:25;9.60;99.90
9971;DHT22;5026;51.494;11.974;2023-02-19T01:15:53;9.60;99.90
9971;DHT22;5026;51.494;11.974;2023-02-19T01:18:20;9.60;99.90
9971;DHT22;5026;51.494;11.974;2023-02-19T01:20:46;9.60;99.90
9971;DHT22;5026;51.494;11.974;2023-02-19T01:23:15;9.60;99.90
9971;DHT22;5026;51.494;11.974;2023-02-19T01:25:42;9.70;99.90
9971;DHT22;5026;51.494;11.974;2023-02-19T01:28:10;9.60;99.90
9971;DHT22;5026;51.494;11.974;2023-02-19T01:30:37;9.60;99.90
9971;DHT22;5026;51.494;11.974;2023-02-19T01:33:05;9.60;99.90
9971;DHT22;5026;51.494;11.974;2023-02-19T01:35:33;9.70;99.90
9971;DHT22;5026;51.494;11.974;2023-02-19T01:38:00;9.70;99.90
9971;DHT22;5026;51.494;11.974;2023-02-19T01:40:28;9.60;99.90
9971;DHT22;5026;51.494;11.974;2023-02-19T01:42:55;9.70;99.90
9971;DHT22;5026;51.494;11.974;2023-02-19T01:45:28;9.60;99.90
9971;DHT22;5026;51.494;11.974;2023-02-19T01:48:03;9.60;99.90
9971;DHT22;5026;51.494;11.974;2023-02-19T01:50:37;9.60;99.90
9971;DHT22;5026;51.494;11.974;2023-02-19T01:53:07;9.60;99.90
9971;DHT22;5026;51.494;11.974;2023-02-19T01:55:38;9.60;99.90
9971;DHT22;5026;51.494;11.974;2023-02-19T01:58:07;9.70;99.90
9971;DHT22;5026;51.494;11.974;2023-02-19T02:00:35;9.70;99.90
9971;DHT22;5026;51.494;11.974;2023-02-19T02:03:03;9.70;99.90
9971;DHT22;5026;51.494;11.974;2023-02-19T02:05:38;9.60;99.90
9971;DHT22;5026;51.494;11.974;2023-02-19T02:08:06;9.60;99.90
9971;DHT22;5026;51.494;11.974;2023-02-19T02:10:51;9.60;99.90
9971;DHT22;5026;51.494;11.974;2023-02-19T02:13:18;9.60;99.90
9971;DHT22;5026;51.494;11.974;2023-02-19T02:15:58;9.60;99.90
9971;DHT22;5026;51.494;11.974;2023-02-19T02:18:31;9.60;99.90
9971;DHT22;5026;51.494;11.974;2023-02-19T02:21:23;9.60;99.90
9971;DHT22;5026;51.494;11.974;2023-02-19T02:24:05;9.60;99.90
9971;DHT22;5026;51.494;11.974;2023-02-19T02:27:03;9.50;99.90
9971;DHT22;5026;51.494;11.974;2023-02-19T02:30:00;10.40;99.90
9971;DHT22;5026;51.494;11.974;2023-02-19T02:32:34;9.50;99.90
9971;DHT22;5026;51.494;11.974;2023-02-19T02:35:07;9.50;99.90
9971;DHT22;5026;51.494;11.974;2023-02-19T02:37:38;9.50;99.90
9971;DHT22;5026;51.494;11.974;2023-02-19T02:40:09;9.50;99.90
9971;DHT22;5026;51.494;11.974;2023-02-19T02:42:38;9.50;99.90
9971;DHT22;5026;51.494;11.974;2023-02-19T02:45:23;9.50;99.90
9971;DHT22;5026;51.494;11.974;2023-02-19T02:48:10;9.50;99.90
9971;DHT22;5026;51.494;11.974;2023-02-19T02:50:42;9.50;99.90
9971;DHT22;5026;51.494;11.974;2023-02-19T02:53:15;9.50;99.90
9971;DHT22;5026;51.494;11.974;2023-02-19T02:56:02;9.50;99.90
9971;DHT22;5026;51.494;11.974;2023-02-19T02:58:30;9.50;99.90
9971;DHT22;5026;51.494;11.974;2023-02-19T03:01:03;9.50;99.90
9971;DHT22;5026;51.494;11.974;2023-02-19T03:03:52;9.50;99.90
9971;DHT22;5026;51.494;11.974;2023-02-19T03:06:21;9.50;99.90
9971;DHT22;5026;51.494;11.974;2023-02-19T03:08:51;9.50;99.90
9971;DHT22;5026;51.494;11.974;2023-02-19T03:11:20;9.50;99.90
9971;DHT22;5026;51.494;11.974;2023-02-19T03:14:14;9.50;99.90
9971;DHT22;5026;51.494;11.974;2023-02-19T03:17:05;9.40;99.90
9971;DHT22;5026;51.494;11.974;2023-02-19T03:19:54;9.40;99.90
9971;DHT22;5026;51.494;11.974;2023-02-19T03:22:24;9.70;99.90
9971;DHT22;5026;51.494;11.974;2023-02-19T03:24:59;10.30;99.90
9971;DHT22;5026;51.494;11.974;2023-02-19T03:27:46;9.40;99.90
9971;DHT22;5026;51.494;11.974;2023-02-19T03:30:18;9.40;99.90
9971;DHT22;5026;51.494;11.974;2023-02-19T03:32:49;9.40;99.90
9971;DHT22;5026;51.494;11.974;2023-02-19T03:35:20;9.40;99.90
9971;DHT22;5026;51.494;11.974;2023-02-19T03:37:52;9.40;99.90
9971;DHT22;5026;51.494;11.974;2023-02-19T03:40:25;9.40;99.90
9971;DHT22;5026;51.494;11.974;2023-02-19T03:42:59;9.40;99.90
9971;DHT22;5026;51.494;11.974;2023-02-19T03:45:42;9.40;99.90
9971;DHT22;5026;51.494;11.974;2023-02-19T03:48:20;9.40;99.90
9971;DHT22;5026;51.494;11.974;2023-02-19T03:50:51;9.40;99.90
9971;DHT22;5026;51.494;11.974;2023-02-19T03:53:26;9.40;99.90
9971;DHT22;5026;51.494;11.974;2023-02-19T03:56:05;9.40;99.90
9971;DHT22;5026;51.494;11.974;2023-02-19T03:58:39;9.40;99.90
9971;DHT22;5026;51.494;11.974;2023-02-19T04:01:10;9.40;99.90
9971;DHT22;5026;51.494;11.974;2023-02-19T04:03:42;9.40;99.90
9971;DHT22;5026;51.494;11.974;2023-02-19T04:06:14;9.30;99.90
9971;DHT22;5026;51.494;11.974;2023-02-19T04:08:46;9.30;99.90
9971;DHT22;5026;51.494;11.974;2023-02-19T04:11:15;9.30;99.90
9971;DHT22;5026;51.494;11.974;2023-02-19T04:13:47;9.30;99.90
9971;DHT22;5026;51.494;11.974;2023-02-19T04:16:19;9.30;99.90
9971;DHT22;5026;51.494;11.974;2023-02-19T04:18:50;9.30;99.90
9971;DHT22;5026;51.494;11.974;2023-02-19T04:21:20;9.30;99.90
9971;DHT22;5026;51.494;11.974;2023-02-19T04:23:49;9.30;99.90
9971;DHT22;5026;51.494;11.974;2023-02-19T04:26:16;9.40;99.90
9971;DHT22;5026;51.494;11.974;2023-02-19T04:28:45;9.40;99.90
9971;DHT22;5026;51.494;11.974;2023-02-19T04:31:12;9.40;99.90
9971;DHT22;5026;51.494;11.974;2023-02-19T04:33:39;9.40;99.90
9971;DHT22;5026;51.494;11.974;2023-02-19T04:36:09;9.40;99.90
9971;DHT22;5026;51.494;11.974;2023-02-19T04:38:36;9.30;99.90
9971;DHT22;5026;51.494;11.974;2023-02-19T04:41:03;9.40;99.90
9971;DHT22;5026;51.494;11.974;2023-02-19T04:43:30;9.30;99.90
9971;DHT22;5026;51.494;11.974;2023-02-19T04:45:59;9.30;99.90
9971;DHT22;5026;51.494;11.974;2023-02-19T04:48:26;9.20;99.90
9971;DHT22;5026;51.494;11.974;2023-02-19T04:50:53;9.20;99.90
9971;DHT22;5026;51.494;11.974;2023-02-19T04:53:21;9.20;99.90
9971;DHT22;5026;51.494;11.974;2023-02-19T04:55:48;9.10;99.90
9971;DHT22;5026;51.494;11.974;2023-02-19T04:58:18;9.10;99.90
9971;DHT22;5026;51.494;11.974;2023-02-19T05:00:45;9.20;99.90
9971;DHT22;5026;51.494;11.974;2023-02-19T05:03:12;9.10;99.90
9971;DHT22;5026;51.494;11.974;2023-02-19T05:05:39;9.20;99.90
9971;DHT22;5026;51.494;11.974;2023-02-19T05:08:06;9.20;99.90
9971;DHT22;5026;51.494;11.974;2023-02-19T05:10:34;9.20;99.90
9971;DHT22;5026;51.494;11.974;2023-02-19T05:13:01;9.20;99.90
9971;DHT22;5026;51.494;11.974;2023-02-19T05:15:28;9.10;99.90
9971;DHT22;5026;51.494;11.974;2023-02-19T05:17:55;9.10;99.90
9971;DHT22;5026;51.494;11.974;2023-02-19T05:20:22;9.10;99.90
9971;DHT22;5026;51.494;11.974;2023-02-19T05:22:49;9.10;99.90
9971;DHT22;5026;51.494;11.974;2023-02-19T05:25:16;9.10;99.90
9971;DHT22;5026;51.494;11.974;2023-02-19T05:27:44;9.20;99.90
9971;DHT22;5026;51.494;11.974;2023-02-19T05:30:11;9.10;99.90
9971;DHT22;5026;51.494;11.974;2023-02-19T05:32:38;9.20;99.90
9971;DHT22;5026;51.494;11.974;2023-02-19T05:35:06;9.20;99.90
9971;DHT22;5026;51.494;11.974;2023-02-19T05:37:32;9.20;99.90
9971;DHT22;5026;51.494;11.974;2023-02-19T05:39:59;9.20;99.90
9971;DHT22;5026;51.494;11.974;2023-02-19T05:42:26;9.20;99.90
9971;DHT22;5026;51.494;11.974;2023-02-19T05:44:55;9.20;99.90
9971;DHT22;5026;51.494;11.974;2023-02-19T05:47:22;9.10;99.90
9971;DHT22;5026;51.494;11.974;2023-02-19T05:49:49;9.20;99.90
9971;DHT22;5026;51.494;11.974;2023-02-19T05:52:16;9.20;99.90
9971;DHT22;5026;51.494;11.974;2023-02-19T05:54:42;9.20;99.90
9971;DHT22;5026;51.494;11.974;2023-02-19T05:57:09;9.30;99.90
9971;DHT22;5026;51.494;11.974;2023-02-19T05:59:36;9.20;99.90
9971;DHT22;5026;51.494;11.974;2023-02-19T06:02:04;9.20;99.90
9971;DHT22;5026;51.494;11.974;2023-02-19T06:04:31;9.30;99.90
9971;DHT22;5026;51.494;11.974;2023-02-19T06:06:58;9.10;99.90
9971;DHT22;5026;51.494;11.974;2023-02-19T06:09:25;8.90;99.90
9971;DHT22;5026;51.494;11.974;2023-02-19T06:11:52;8.80;99.90
9971;DHT22;5026;51.494;11.974;2023-02-19T06:14:19;8.00;99.90
9971;DHT22;5026;51.494;11.974;2023-02-19T06:16:46;7.90;99.90
9971;DHT22;5026;51.494;11.974;2023-02-19T06:19:14;7.70;99.90
9971;DHT22;5026;51.494;11.974;2023-02-19T06:21:41;7.30;99.90
9971;DHT22;5026;51.494;11.974;2023-02-19T06:24:08;7.20;99.90
9971;DHT22;5026;51.494;11.974;2023-02-19T06:26:35;7.10;99.90
9971;DHT22;5026;51.494;11.974;2023-02-19T06:29:02;7.00;99.90
9971;DHT22;5026;51.494;11.974;2023-02-19T06:31:29;7.00;99.90
9971;DHT22;5026;51.494;11.974;2023-02-19T06:33:56;6.90;99.90
9971;DHT22;5026;51.494;11.974;2023-02-19T06:36:25;6.60;99.90
9971;DHT22;5026;51.494;11.974;2023-02-19T06:38:51;6.60;99.90
9971;DHT22;5026;51.494;11.974;2023-02-19T06:41:19;6.60;99.90
9971;DHT22;5026;51.494;11.974;2023-02-19T06:43:45;6.30;99.90
9971;DHT22;5026;51.494;11.974;2023-02-19T06:46:13;6.10;99.90
9971;DHT22;5026;51.494;11.974;2023-02-19T06:48:41;6.10;99.90
9971;DHT22;5026;51.494;11.974;2023-02-19T06:51:10;6.50;99.90
9971;DHT22;5026;51.494;11.974;2023-02-19T06:53:39;6.10;99.90
9971;DHT22;5026;51.494;11.974;2023-02-19T06:56:20;5.90;99.90
9971;DHT22;5026;51.494;11.974;2023-02-19T06:58:47;5.80;99.90
9971;DHT22;5026;51.494;11.974;2023-02-19T07:01:14;5.70;99.90
9971;DHT22;5026;51.494;11.974;2023-02-19T07:03:41;5.70;99.90
9971;DHT22;5026;51.494;11.974;2023-02-19T07:06:08;5.50;99.90
9971;DHT22;5026;51.494;11.974;2023-02-19T07:08:35;5.70;99.90
9971;DHT22;5026;51.494;11.974;2023-02-19T07:11:04;5.90;99.90
9971;DHT22;5026;51.494;11.974;2023-02-19T07:13:31;5.80;99.90
9971;DHT22;5026;51.494;11.974;2023-02-19T07:15:59;5.80;99.90
9971;DHT22;5026;51.494;11.974;2023-02-19T07:18:28;6.10;99.90
9971;DHT22;5026;51.494;11.974;2023-02-19T07:21:01;5.90;99.90
9971;DHT22;5026;51.494;11.974;2023-02-19T07:23:28;5.90;99.90
9971;DHT22;5026;51.494;11.974;2023-02-19T07:25:55;6.60;99.90
9971;DHT22;5026;51.494;11.974;2023-02-19T07:28:24;5.90;99.90
9971;DHT22;5026;51.494;11.974;2023-02-19T07:30:51;5.80;99.90
9971;DHT22;5026;51.494;11.974;2023-02-19T07:33:18;5.70;99.90
9971;DHT22;5026;51.494;11.974;2023-02-19T07:35:45;5.80;99.90
9971;DHT22;5026;51.494;11.974;2023-02-19T07:38:14;5.80;99.90
9971;DHT22;5026;51.494;11.974;2023-02-19T07:40:41;5.80;99.90
9971;DHT22;5026;51.494;11.974;2023-02-19T07:43:08;5.80;99.90
9971;DHT22;5026;51.494;11.974;2023-02-19T07:45:36;5.90;99.90
9971;DHT22;5026;51.494;11.974;2023-02-19T07:48:03;5.90;99.90
9971;DHT22;5026;51.494;11.974;2023-02-19T07:50:30;5.80;99.90
9971;DHT22;5026;51.494;11.974;2023-02-19T07:52:57;6.00;99.90
9971;DHT22;5026;51.494;11.974;2023-02-19T07:55:24;6.00;99.90
9971;DHT22;5026;51.494;11.974;2023-02-19T07:57:51;6.00;99.90
9971;DHT22;5026;51.494;11.974;2023-02-19T08:00:18;5.80;99.90
9971;DHT22;5026;51.494;11.974;2023-02-19T08:02:46;5.50;99.90
9971;DHT22;5026;51.494;11.974;2023-02-19T08:05:25;5.30;99.90
9971;DHT22;5026;51.494;11.974;2023-02-19T08:07:52;5.10;99.90
9971;DHT22;5026;51.494;11.974;2023-02-19T08:10:19;5.10;99.90
9971;DHT22;5026;51.494;11.974;2023-02-19T08:13:03;5.20;99.90
9971;DHT22;5026;51.494;11.974;2023-02-19T08:15:48;5.20;99.90
9971;DHT22;5026;51.494;11.974;2023-02-19T08:18:17;5.10;99.90
9971;DHT22;5026;51.494;11.974;2023-02-19T08:20:45;5.30;99.90
9971;DHT22;5026;51.494;11.974;2023-02-19T08:23:12;5.40;99.90
9971;DHT22;5026;51.494;11.974;2023-02-19T08:25:39;5.30;99.90
9971;DHT22;5026;51.494;11.974;2023-02-19T08:28:07;5.50;99.90
9971;DHT22;5026;51.494;11.974;2023-02-19T08:30:35;5.20;99.90
9971;DHT22;5026;51.494;11.974;2023-02-19T08:33:03;5.20;99.90
9971;DHT22;5026;51.494;11.974;2023-02-19T08:35:33;5.20;99.90
9971;DHT22;5026;51.494;11.974;2023-02-19T08:38:01;5.40;99.90
9971;DHT22;5026;51.494;11.974;2023-02-19T08:40:28;5.10;99.90
9971;DHT22;5026;51.494;11.974;2023-02-19T08:42:57;5.30;99.90
9971;DHT22;5026;51.494;11.974;2023-02-19T08:45:27;5.50;99.90
9971;DHT22;5026;51.494;11.974;2023-02-19T08:47:54;5.90;99.90
9971;DHT22;5026;51.494;11.974;2023-02-19T08:50:20;5.70;99.90
9971;DHT22;5026;51.494;11.974;2023-02-19T08:52:49;5.70;99.90
9971;DHT22;5026;51.494;11.974;2023-02-19T08:55:16;5.50;99.90
9971;DHT22;5026;51.494;11.974;2023-02-19T08:57:43;5.60;99.90
9971;DHT22;5026;51.494;11.974;2023-02-19T09:00:11;5.70;99.90
9971;DHT22;5026;51.494;11.974;2023-02-19T09:02:39;5.90;99.90
9971;DHT22;5026;51.494;11.974;2023-02-19T09:05:06;6.20;99.90
9971;DHT22;5026;51.494;11.974;2023-02-19T09:07:33;6.40;99.90
9971;DHT22;5026;51.494;11.974;2023-02-19T09:10:01;6.40;99.90
9971;DHT22;5026;51.494;11.974;2023-02-19T09:12:28;6.60;99.90
9971;DHT22;5026;51.494;11.974;2023-02-19T09:14:55;6.80;99.90
9971;DHT22;5026;51.494;11.974;2023-02-19T09:17:22;6.70;99.90
9971;DHT22;5026;51.494;11.974;2023-02-19T09:19:49;7.00;99.90
9971;DHT22;5026;51.494;11.974;2023-02-19T09:22:16;7.10;99.90
9971;DHT22;5026;51.494;11.974;2023-02-19T09:24:43;7.10;99.90
9971;DHT22;5026;51.494;11.974;2023-02-19T09:27:15;7.10;99.90
9971;DHT22;5026;51.494;11.974;2023-02-19T09:29:42;7.30;99.90
9971;DHT22;5026;51.494;11.974;2023-02-19T09:32:10;7.50;99.90
9971;DHT22;5026;51.494;11.974;2023-02-19T09:34:37;8.10;99.90
9971;DHT22;5026;51.494;11.974;2023-02-19T09:37:05;8.80;99.90
9971;DHT22;5026;51.494;11.974;2023-02-19T09:39:33;9.20;99.90
9971;DHT22;5026;51.494;11.974;2023-02-19T09:42:03;9.00;99.90
9971;DHT22;5026;51.494;11.974;2023-02-19T09:44:38;9.10;99.90
9971;DHT22;5026;51.494;11.974;2023-02-19T09:47:12;9.20;99.90
9971;DHT22;5026;51.494;11.974;2023-02-19T09:49:43;9.40;99.90
9971;DHT22;5026;51.494;11.974;2023-02-19T09:52:18;9.60;99.90
9971;DHT22;5026;51.494;11.974;2023-02-19T09:54:46;9.70;99.90
9971;DHT22;5026;51.494;11.974;2023-02-19T09:57:15;9.80;99.90
9971;DHT22;5026;51.494;11.974;2023-02-19T09:59:47;9.60;99.90
9971;DHT22;5026;51.494;11.974;2023-02-19T10:02:16;9.60;99.90
9971;DHT22;5026;51.494;11.974;2023-02-19T10:04:45;9.30;99.90
9971;DHT22;5026;51.494;11.974;2023-02-19T10:07:13;8.80;99.90
9971;DHT22;5026;51.494;11.974;2023-02-19T10:09:42;8.50;99.90
9971;DHT22;5026;51.494;11.974;2023-02-19T10:12:14;8.60;99.90
9971;DHT22;5026;51.494;11.974;2023-02-19T10:14:45;8.90;99.90
9971;DHT22;5026;51.494;11.974;2023-02-19T10:17:22;8.90;99.90
9971;DHT22;5026;51.494;11.974;2023-02-19T10:19:49;9.00;99.90
9971;DHT22;5026;51.494;11.974;2023-02-19T10:22:17;8.90;99.90
9971;DHT22;5026;51.494;11.974;2023-02-19T10:24:48;8.90;99.90
9971;DHT22;5026;51.494;11.974;2023-02-19T10:27:16;8.90;99.90
9971;DHT22;5026;51.494;11.974;2023-02-19T10:29:46;8.60;99.90
9971;DHT22;5026;51.494;11.974;2023-02-19T10:32:18;8.10;99.90
9971;DHT22;5026;51.494;11.974;2023-02-19T10:35:07;8.00;99.90
9971;DHT22;5026;51.494;11.974;2023-02-19T10:37:34;8.10;99.90
9971;DHT22;5026;51.494;11.974;2023-02-19T10:40:02;8.40;99.90
9971;DHT22;5026;51.494;11.974;2023-02-19T10:42:29;8.10;99.90
9971;DHT22;5026;51.494;11.974;2023-02-19T10:44:59;8.20;99.90
9971;DHT22;5026;51.494;11.974;2023-02-19T10:47:29;8.50;99.90
9971;DHT22;5026;51.494;11.974;2023-02-19T10:49:59;8.70;99.90
9971;DHT22;5026;51.494;11.974;2023-02-19T10:52:28;8.60;99.40
9971;DHT22;5026;51.494;11.974;2023-02-19T10:54:56;8.50;99.30
9971;DHT22;5026;51.494;11.974;2023-02-19T10:57:28;8.30;99.50
9971;DHT22;5026;51.494;11.974;2023-02-19T11:00:00;8.40;99.40
9971;DHT22;5026;51.494;11.974;2023-02-19T11:02:29;8.30;99.40
9971;DHT22;5026;51.494;11.974;2023-02-19T11:05:04;8.00;98.90
9971;DHT22;5026;51.494;11.974;2023-02-19T11:07:32;7.70;99.30
9971;DHT22;5026;51.494;11.974;2023-02-19T11:09:59;8.10;99.90
9971;DHT22;5026;51.494;11.974;2023-02-19T11:12:28;7.80;99.80
9971;DHT22;5026;51.494;11.974;2023-02-19T11:15:20;8.00;99.70
9971;DHT22;5026;51.494;11.974;2023-02-19T11:17:54;8.00;99.60
9971;DHT22;5026;51.494;11.974;2023-02-19T11:20:21;8.30;99.80
9971;DHT22;5026;51.494;11.974;2023-02-19T11:22:48;8.70;99.40
9971;DHT22;5026;51.494;11.974;2023-02-19T11:25:19;9.20;98.20
9971;DHT22;5026;51.494;11.974;2023-02-19T11:27:54;9.80;98.10
9971;DHT22;5026;51.494;11.974;2023-02-19T11:30:34;10.30;97.50
9971;DHT22;5026;51.494;11.974;2023-02-19T11:33:21;10.10;96.60
9971;DHT22;5026;51.494;11.974;2023-02-19T11:35:52;10.00;96.60
9971;DHT22;5026;51.494;11.974;2023-02-19T11:38:21;10.00;96.60
9971;DHT22;5026;51.494;11.974;2023-02-19T11:40:53;9.90;96.90
9971;DHT22;5026;51.494;11.974;2023-02-19T11:43:45;9.90;97.10
9971;DHT22;5026;51.494;11.974;2023-02-19T11:46:21;9.90;97.20
9971;DHT22;5026;51.494;11.974;2023-02-19T11:49:02;9.90;96.70
9971;DHT22;5026;51.494;11.974;2023-02-19T11:51:47;9.90;96.70
9971;DHT22;5026;51.494;11.974;2023-02-19T11:54:25;10.30;96.40
9971;DHT22;5026;51.494;11.974;2023-02-19T11:57:00;10.50;96.10
9971;DHT22;5026;51.494;11.974;2023-02-19T11:59:34;10.60;96.00
9971;DHT22;5026;51.494;11.974;2023-02-19T12:05:20;9.90;96.00
9971;DHT22;5026;51.494;11.974;2023-02-19T12:08:21;9.50;96.40
9971;DHT22;5026;51.494;11.974;2023-02-19T12:11:02;9.20;96.80
9971;DHT22;5026;51.494;11.974;2023-02-19T12:13:45;9.00;97.30
9971;DHT22;5026;51.494;11.974;2023-02-19T12:16:20;9.00;97.10
9971;DHT22;5026;51.494;11.974;2023-02-19T12:19:10;8.80;97.00
9971;DHT22;5026;51.494;11.974;2023-02-19T12:21:50;8.80;97.10
9971;DHT22;5026;51.494;11.974;2023-02-19T12:24:43;8.80;97.30
9971;DHT22;5026;51.494;11.974;2023-02-19T12:27:27;8.80;97.40
9971;DHT22;5026;51.494;11.974;2023-02-19T12:36:04;9.20;97.40
9971;DHT22;5026;51.494;11.974;2023-02-19T12:38:41;9.00;96.80
9971;DHT22;5026;51.494;11.974;2023-02-19T12:41:27;8.90;97.20
9971;DHT22;5026;51.494;11.974;2023-02-19T12:43:59;8.80;96.10
9971;DHT22;5026;51.494;11.974;2023-02-19T12:46:31;8.50;96.20
9971;DHT22;5026;51.494;11.974;2023-02-19T12:49:03;8.50;96.80
9971;DHT22;5026;51.494;11.974;2023-02-19T12:51:36;8.40;97.10
9971;DHT22;5026;51.494;11.974;2023-02-19T12:54:12;8.30;96.50
9971;DHT22;5026;51.494;11.974;2023-02-19T12:56:46;8.20;96.80
9971;DHT22;5026;51.494;11.974;2023-02-19T12:59:20;8.00;97.20
9971;DHT22;5026;51.494;11.974;2023-02-19T13:01:53;8.10;97.30
9971;DHT22;5026;51.494;11.974;2023-02-19T13:04:27;8.10;97.40
9971;DHT22;5026;51.494;11.974;2023-02-19T13:06:57;8.30;97.40
9971;DHT22;5026;51.494;11.974;2023-02-19T13:09:33;8.50;97.50
9971;DHT22;5026;51.494;11.974;2023-02-19T13:12:04;8.50;97.10
9971;DHT22;5026;51.494;11.974;2023-02-19T13:14:35;8.50;96.90
9971;DHT22;5026;51.494;11.974;2023-02-19T13:17:12;8.20;96.70
9971;DHT22;5026;51.494;11.974;2023-02-19T13:19:43;8.10;97.00
9971;DHT22;5026;51.494;11.974;2023-02-19T13:22:24;8.00;97.20
9971;DHT22;5026;51.494;11.974;2023-02-19T13:25:15;8.00;97.30
9971;DHT22;5026;51.494;11.974;2023-02-19T13:28:05;8.20;97.50
9971;DHT22;5026;51.494;11.974;2023-02-19T13:30:47;8.50;97.50
9971;DHT22;5026;51.494;11.974;2023-02-19T13:33:35;8.50;97.10
9971;DHT22;5026;51.494;11.974;2023-02-19T13:36:15;8.40;97.00
9971;DHT22;5026;51.494;11.974;2023-02-19T13:38:47;8.30;97.40
9971;DHT22;5026;51.494;11.974;2023-02-19T13:41:26;8.20;97.30
9971;DHT22;5026;51.494;11.974;2023-02-19T13:43:56;8.00;97.20
9971;DHT22;5026;51.494;11.974;2023-02-19T13:46:24;7.60;97.00
9971;DHT22;5026;51.494;11.974;2023-02-19T13:49:34;7.60;97.10
9971;DHT22;5026;51.494;11.974;2023-02-19T13:52:33;7.60;97.30
9971;DHT22;5026;51.494;11.974;2023-02-19T13:58:34;7.70;97.40
9971;DHT22;5026;51.494;11.974;2023-02-19T14:01:03;7.70;97.40
9971;DHT22;5026;51.494;11.974;2023-02-19T14:03:43;7.60;97.30
9971;DHT22;5026;51.494;11.974;2023-02-19T14:06:10;7.60;97.50
9971;DHT22;5026;51.494;11.974;2023-02-19T14:08:49;7.60;97.30
9971;DHT22;5026;51.494;11.974;2023-02-19T14:11:17;7.60;96.90
9971;DHT22;5026;51.494;11.974;2023-02-19T14:13:58;7.60;97.10
9971;DHT22;5026;51.494;11.974;2023-02-19T14:16:54;7.70;97.30
9971;DHT22;5026;51.494;11.974;2023-02-19T14:19:47;7.60;97.10
9971;DHT22;5026;51.494;11.974;2023-02-19T14:22:50;7.70;97.10
9971;DHT22;5026;51.494;11.974;2023-02-19T14:25:42;7.70;97.20
9971;DHT22;5026;51.494;11.974;2023-02-19T14:28:16;7.80;97.50
9971;DHT22;5026;51.494;11.974;2023-02-19T14:30:48;7.90;97.60
9971;DHT22;5026;51.494;11.974;2023-02-19T14:33:17;7.90;97.40
9971;DHT22;5026;51.494;11.974;2023-02-19T14:35:46;7.90;97.60
9971;DHT22;5026;51.494;11.974;2023-02-19T14:38:19;7.90;97.70
9971;DHT22;5026;51.494;11.974;2023-02-19T14:40:47;8.10;97.80
9971;DHT22;5026;51.494;11.974;2023-02-19T14:43:16;8.20;97.50
9971;DHT22;5026;51.494;11.974;2023-02-19T14:45:48;8.20;97.30
9971;DHT22;5026;51.494;11.974;2023-02-19T14:48:18;8.30;97.10
9971;DHT22;5026;51.494;11.974;2023-02-19T14:50:49;8.30;96.80
9971;DHT22;5026;51.494;11.974;2023-02-19T14:53:18;8.50;96.50
9971;DHT22;5026;51.494;11.974;2023-02-19T14:55:46;8.50;96.60
9971;DHT22;5026;51.494;11.974;2023-02-19T14:58:19;8.40;96.50
9971;DHT22;5026;51.494;11.974;2023-02-19T15:00:49;8.20;96.60
9971;DHT22;5026;51.494;11.974;2023-02-19T15:03:28;8.10;96.50
9971;DHT22;5026;51.494;11.974;2023-02-19T15:05:57;7.90;96.50
9971;DHT22;5026;51.494;11.974;2023-02-19T15:08:30;7.90;96.60
9971;DHT22;5026;51.494;11.974;2023-02-19T15:10:58;7.80;96.70
9971;DHT22;5026;51.494;11.974;2023-02-19T15:13:27;7.80;96.70
9971;DHT22;5026;51.494;11.974;2023-02-19T15:15:57;8.00;96.90
9971;DHT22;5026;51.494;11.974;2023-02-19T15:18:25;7.80;96.70
9971;DHT22;5026;51.494;11.974;2023-02-19T15:20:59;7.80;96.90
9971;DHT22;5026;51.494;11.974;2023-02-19T15:23:26;7.70;96.90
9971;DHT22;5026;51.494;11.974;2023-02-19T15:25:55;7.50;97.10
9971;DHT22;5026;51.494;11.974;2023-02-19T15:28:29;7.40;97.20
9971;DHT22;5026;51.494;11.974;2023-02-19T15:31:09;7.30;97.50
9971;DHT22;5026;51.494;11.974;2023-02-19T15:33:37;7.30;97.50
9971;DHT22;5026;51.494;11.974;2023-02-19T15:36:06;7.20;97.60
9971;DHT22;5026;51.494;11.974;2023-02-19T15:38:33;7.10;97.70
9971;DHT22;5026;51.494;11.974;2023-02-19T15:41:01;7.00;97.80
9971;DHT22;5026;51.494;11.974;2023-02-19T15:43:30;7.00;97.90
9971;DHT22;5026;51.494;11.974;2023-02-19T15:46:03;7.20;98.10
9971;DHT22;5026;51.494;11.974;2023-02-19T15:48:37;6.90;98.20
9971;DHT22;5026;51.494;11.974;2023-02-19T15:51:08;7.30;98.30
9971;DHT22;5026;51.494;11.974;2023-02-19T15:53:40;6.80;98.20
9971;DHT22;5026;51.494;11.974;2023-02-19T15:56:15;6.90;98.20
9971;DHT22;5026;51.494;11.974;2023-02-19T15:58:47;6.80;98.20
9971;DHT22;5026;51.494;11.974;2023-02-19T16:01:19;7.30;98.40
9971;DHT22;5026;51.494;11.974;2023-02-19T16:03:49;6.70;98.00
9971;DHT22;5026;51.494;11.974;2023-02-19T16:06:21;6.60;98.00
9971;DHT22;5026;51.494;11.974;2023-02-19T16:08:59;6.60;98.40
9971;DHT22;5026;51.494;11.974;2023-02-19T16:11:29;6.60;98.20
9971;DHT22;5026;51.494;11.974;2023-02-19T16:14:16;6.50;98.20
9971;DHT22;5026;51.494;11.974;2023-02-19T16:16:45;6.40;98.30
9971;DHT22;5026;51.494;11.974;2023-02-19T16:19:21;6.40;98.40
9971;DHT22;5026;51.494;11.974;2023-02-19T16:21:50;6.30;98.40
9971;DHT22;5026;51.494;11.974;2023-02-19T16:24:25;6.20;98.50
9971;DHT22;5026;51.494;11.974;2023-02-19T16:26:52;6.30;98.60
9971;DHT22;5026;51.494;11.974;2023-02-19T16:29:21;7.60;99.20
9971;DHT22;5026;51.494;11.974;2023-02-19T16:31:50;6.00;98.80
9971;DHT22;5026;51.494;11.974;2023-02-19T16:34:31;7.10;99.20
9971;DHT22;5026;51.494;11.974;2023-02-19T16:37:00;5.90;98.90
9971;DHT22;5026;51.494;11.974;2023-02-19T16:39:27;5.90;99.10
9971;DHT22;5026;51.494;11.974;2023-02-19T16:42:15;5.80;99.10
9971;DHT22;5026;51.494;11.974;2023-02-19T16:44:44;5.80;99.30